createdAt,value
2023-01-17T00:01:55.638Z,0.80
2023-01-17T00:04:40.694Z,0.70
2023-01-17T00:07:29.275Z,0.60
2023-01-17T00:09:57.266Z,0.90
2023-01-17T00:12:29.877Z,0.90
2023-01-17T00:14:58.587Z,1.10
2023-01-17T00:17:27.733Z,0.70
2023-01-17T00:20:13.827Z,0.70
2023-01-17T00:23:01.906Z,1.00
2023-01-17T00:25:52.856Z,0.77
2023-01-17T00:28:19.676Z,0.60
2023-01-17T00:30:46.488Z,0.90
2023-01-17T00:33:13.689Z,0.90
2023-01-17T00:35:40.884Z,0.80
2023-01-17T00:38:12.859Z,1.10
2023-01-17T00:40:41.766Z,0.97
2023-01-17T00:43:27.647Z,0.80
2023-01-17T00:46:13.729Z,0.73
2023-01-17T00:48:59.515Z,0.70
2023-01-17T00:51:45.805Z,0.73
2023-01-17T00:54:31.292Z,1.10
2023-01-17T00:57:16.884Z,0.90
2023-01-17T01:00:01.858Z,0.80
2023-01-17T01:02:47.597Z,0.77
2023-01-17T01:05:34.413Z,0.97
2023-01-17T01:08:20.286Z,1.03
2023-01-17T01:11:06.699Z,0.83
2023-01-17T01:13:52.675Z,0.90
2023-01-17T01:16:38.556Z,0.90
2023-01-17T01:19:24.786Z,0.93
2023-01-17T01:22:09.949Z,0.80
2023-01-17T01:24:55.468Z,0.70
2023-01-17T01:27:41.070Z,0.93
2023-01-17T01:30:26.972Z,0.90
2023-01-17T01:33:12.214Z,0.80
2023-01-17T01:35:38.837Z,1.10
2023-01-17T01:38:05.542Z,0.90
2023-01-17T01:40:32.084Z,1.00
2023-01-17T01:43:00.393Z,0.90
2023-01-17T01:45:30.182Z,1.00
2023-01-17T01:48:04.199Z,0.80
2023-01-17T01:50:33.767Z,1.03
2023-01-17T01:53:03.379Z,1.10
2023-01-17T01:55:35.195Z,1.20
2023-01-17T01:58:11.520Z,0.80
2023-01-17T02:00:41.039Z,0.80
2023-01-17T02:03:11.952Z,1.30
2023-01-17T02:05:38.977Z,1.00
2023-01-17T02:08:08.695Z,0.80
2023-01-17T02:10:37.678Z,1.10
2023-01-17T02:13:05.595Z,1.00
2023-01-17T02:15:54.233Z,0.90
2023-01-17T02:18:33.468Z,1.00
2023-01-17T02:21:26.285Z,0.80
2023-01-17T02:24:37.260Z,0.80
2023-01-17T02:27:27.296Z,1.00
2023-01-17T02:30:15.447Z,0.60
2023-01-17T02:33:06.550Z,0.67
2023-01-17T02:35:35.279Z,0.80
2023-01-17T02:38:13.082Z,1.03
2023-01-17T02:40:49.924Z,0.70
2023-01-17T02:43:19.018Z,0.73
2023-01-17T02:45:45.962Z,0.97
2023-01-17T02:48:16.958Z,1.13
2023-01-17T02:50:57.514Z,0.70
2023-01-17T02:53:40.415Z,0.70
2023-01-17T02:56:40.509Z,0.87
2023-01-17T02:59:35.048Z,0.60
2023-01-17T03:02:07.360Z,0.80
2023-01-17T03:05:01.269Z,0.67
2023-01-17T03:07:30.444Z,0.70
2023-01-17T03:10:01.056Z,0.63
2023-01-17T03:12:29.443Z,0.70
2023-01-17T03:14:56.068Z,0.70
2023-01-17T03:17:25.169Z,0.90
2023-01-17T03:19:51.769Z,1.00
2023-01-17T03:22:18.353Z,0.70
2023-01-17T03:24:44.949Z,0.80
2023-01-17T03:27:11.536Z,0.67
2023-01-17T03:29:38.643Z,0.70
2023-01-17T03:32:05.494Z,0.70
2023-01-17T03:34:32.206Z,0.80
2023-01-17T03:36:58.906Z,0.80
2023-01-17T03:39:25.935Z,0.80
2023-01-17T03:41:52.464Z,0.90
2023-01-17T03:44:19.279Z,0.80
2023-01-17T03:46:45.855Z,0.80
2023-01-17T03:49:12.414Z,0.90
2023-01-17T03:51:39.131Z,0.70
2023-01-17T03:54:05.834Z,0.90
2023-01-17T03:56:32.423Z,1.10
2023-01-17T03:58:59.102Z,0.80
2023-01-17T04:01:25.829Z,0.83
2023-01-17T04:03:52.529Z,0.80
2023-01-17T04:06:19.202Z,0.80
2023-01-17T04:08:45.720Z,0.80
2023-01-17T04:11:12.256Z,0.70
2023-01-17T04:13:39.038Z,0.70
2023-01-17T04:16:05.907Z,0.90
2023-01-17T04:18:32.511Z,0.80
2023-01-17T04:20:59.233Z,0.87
2023-01-17T04:23:25.888Z,0.80
2023-01-17T04:25:52.439Z,0.70
2023-01-17T04:28:19.295Z,0.80
2023-01-17T04:30:45.862Z,0.70
2023-01-17T04:33:12.506Z,1.40
2023-01-17T04:35:39.415Z,1.30
2023-01-17T04:38:05.993Z,0.80
2023-01-17T04:40:32.658Z,0.97
2023-01-17T04:42:59.800Z,1.00
2023-01-17T04:45:26.590Z,0.93
2023-01-17T04:47:53.163Z,0.70
2023-01-17T04:50:20.088Z,0.83
2023-01-17T04:52:46.722Z,0.70
2023-01-17T04:55:13.371Z,0.80
2023-01-17T04:57:40.075Z,0.70
2023-01-17T05:00:07.247Z,0.70
2023-01-17T05:02:33.871Z,0.80
2023-01-17T05:05:00.679Z,0.70
2023-01-17T05:07:27.248Z,0.80
2023-01-17T05:09:53.886Z,0.70
2023-01-17T05:12:20.638Z,0.90
2023-01-17T05:14:47.158Z,0.80
2023-01-17T05:17:13.730Z,0.80
2023-01-17T05:19:40.505Z,1.07
2023-01-17T05:22:15.183Z,0.90
2023-01-17T05:24:46.818Z,0.90
2023-01-17T05:27:14.261Z,1.30
2023-01-17T05:29:41.243Z,1.10
2023-01-17T05:32:08.188Z,0.70
2023-01-17T05:34:35.191Z,0.90
2023-01-17T05:37:01.888Z,0.90
2023-01-17T05:39:28.813Z,0.90
2023-01-17T05:41:55.368Z,1.00
2023-01-17T05:44:21.995Z,0.80
2023-01-17T05:46:48.749Z,0.80
2023-01-17T05:49:15.303Z,0.70
2023-01-17T05:51:41.934Z,1.10
2023-01-17T05:54:08.798Z,0.83
2023-01-17T05:56:35.394Z,0.97
2023-01-17T05:59:02.109Z,0.97
2023-01-17T06:01:28.799Z,0.80
2023-01-17T06:03:55.350Z,1.10
2023-01-17T06:06:22.079Z,1.10
2023-01-17T06:08:48.671Z,1.00
2023-01-17T06:11:15.272Z,1.03
2023-01-17T06:13:41.813Z,1.03
2023-01-17T06:16:08.915Z,1.17
2023-01-17T06:18:35.585Z,1.00
2023-01-17T06:21:02.168Z,1.20
2023-01-17T06:23:28.941Z,1.07
2023-01-17T06:25:55.557Z,1.73
2023-01-17T06:28:23.435Z,1.50
2023-01-17T06:30:50.397Z,1.73
2023-01-17T06:33:17.136Z,1.73
2023-01-17T06:35:51.686Z,2.03
2023-01-17T06:38:18.555Z,2.13
2023-01-17T06:40:45.165Z,2.03
2023-01-17T06:43:11.766Z,2.00
2023-01-17T06:45:38.414Z,8.57
2023-01-17T06:48:05.576Z,31.83
2023-01-17T06:50:34.066Z,6.63
2023-01-17T06:53:03.688Z,11.70
2023-01-17T06:55:33.804Z,12.93
2023-01-17T06:58:02.787Z,7.93
2023-01-17T07:00:30.988Z,2.10
2023-01-17T07:02:58.391Z,1.70
2023-01-17T07:05:25.119Z,3.17
2023-01-17T07:07:51.836Z,1.70
2023-01-17T07:10:18.539Z,1.63
2023-01-17T07:12:45.506Z,1.73
2023-01-17T07:15:12.384Z,1.73
2023-01-17T07:17:39.389Z,2.07
2023-01-17T07:20:06.865Z,1.80
2023-01-17T07:22:33.458Z,2.07
2023-01-17T07:25:00.498Z,1.90
2023-01-17T07:27:30.450Z,1.60
2023-01-17T07:29:57.761Z,1.77
2023-01-17T07:32:26.855Z,1.90
2023-01-17T07:34:54.395Z,1.93
2023-01-17T07:37:21.287Z,2.83
2023-01-17T07:39:48.083Z,2.60
2023-01-17T07:42:14.708Z,1.70
2023-01-17T07:44:44.069Z,1.93
2023-01-17T07:47:12.109Z,1.90
2023-01-17T07:49:38.725Z,2.27
2023-01-17T07:52:09.432Z,2.40
2023-01-17T07:54:36.028Z,2.50
2023-01-17T07:57:03.432Z,2.33
2023-01-17T07:59:30.247Z,2.27
2023-01-17T08:01:56.982Z,2.70
2023-01-17T08:04:26.247Z,2.57
2023-01-17T08:06:55.015Z,2.60
2023-01-17T08:09:22.229Z,2.80
2023-01-17T08:11:48.978Z,2.17
2023-01-17T08:14:15.577Z,1.83
2023-01-17T08:16:42.597Z,2.27
2023-01-17T08:19:10.146Z,2.10
2023-01-17T08:21:36.754Z,1.70
2023-01-17T08:24:03.624Z,1.90
2023-01-17T08:26:30.188Z,1.70
2023-01-17T08:29:02.178Z,1.70
2023-01-17T08:31:31.811Z,1.60
2023-01-17T08:33:58.538Z,1.57
2023-01-17T08:36:25.945Z,1.87
2023-01-17T08:38:52.996Z,1.87
2023-01-17T08:41:20.996Z,2.00
2023-01-17T08:43:48.643Z,2.10
2023-01-17T08:46:15.750Z,2.17
2023-01-17T08:48:42.440Z,2.30
2023-01-17T08:51:09.319Z,2.60
2023-01-17T08:53:35.987Z,2.17
2023-01-17T08:56:05.293Z,2.30
2023-01-17T08:58:32.905Z,2.03
2023-01-17T09:01:01.603Z,2.57
2023-01-17T09:03:28.554Z,2.07
2023-01-17T09:06:21.893Z,2.60
2023-01-17T09:08:49.682Z,2.47
2023-01-17T09:11:17.667Z,2.20
2023-01-17T09:13:44.710Z,2.70
2023-01-17T09:16:11.374Z,2.50
2023-01-17T09:18:38.198Z,3.07
2023-01-17T09:21:16.421Z,2.20
2023-01-17T09:23:43.858Z,1.77
2023-01-17T09:26:31.213Z,2.43
2023-01-17T09:28:58.710Z,1.90
2023-01-17T09:31:27.199Z,2.00
2023-01-17T09:33:55.456Z,2.30
2023-01-17T09:36:22.268Z,1.70
2023-01-17T09:38:48.899Z,1.83
2023-01-17T09:41:27.813Z,2.10
2023-01-17T09:43:54.360Z,2.20
2023-01-17T09:46:26.889Z,2.83
2023-01-17T09:49:30.333Z,2.80
2023-01-17T09:51:57.337Z,2.67
2023-01-17T09:54:27.051Z,2.50
2023-01-17T09:57:03.033Z,2.70
2023-01-17T09:59:40.253Z,2.93
2023-01-17T10:02:36.032Z,2.70
2023-01-17T10:05:40.146Z,2.53
2023-01-17T10:08:23.957Z,2.10
2023-01-17T10:11:05.724Z,2.17
2023-01-17T10:13:32.280Z,2.20
2023-01-17T10:16:01.609Z,2.73
2023-01-17T10:18:46.853Z,2.13
2023-01-17T10:21:39.719Z,2.07
2023-01-17T10:24:40.394Z,2.07
2023-01-17T10:27:23.206Z,2.30
2023-01-17T10:29:51.098Z,2.10
2023-01-17T10:32:22.758Z,2.07
2023-01-17T10:34:53.564Z,2.10
2023-01-17T10:37:37.096Z,1.90
2023-01-17T10:40:18.891Z,1.90
2023-01-17T10:42:55.173Z,2.20
2023-01-17T10:45:28.432Z,2.40
2023-01-17T10:48:33.634Z,2.47
2023-01-17T10:51:29.679Z,2.17
2023-01-17T10:54:04.886Z,2.20
2023-01-17T10:56:34.455Z,2.90
2023-01-17T10:59:38.888Z,2.53
2023-01-17T11:02:19.122Z,2.63
2023-01-17T11:04:52.027Z,2.60
2023-01-17T11:07:24.530Z,2.47
2023-01-17T11:09:53.709Z,2.83
2023-01-17T11:12:45.847Z,2.20
2023-01-17T11:15:12.317Z,2.50
2023-01-17T11:17:53.107Z,2.33
2023-01-17T11:20:43.733Z,2.70
2023-01-17T11:23:16.639Z,2.43
2023-01-17T11:25:57.994Z,2.40
2023-01-17T11:28:30.717Z,2.40
2023-01-17T11:31:03.639Z,2.50
2023-01-17T11:33:45.450Z,2.27
2023-01-17T11:36:30.376Z,2.43
2023-01-17T11:39:05.057Z,2.13
2023-01-17T11:41:37.403Z,2.13
2023-01-17T11:44:21.930Z,2.33
2023-01-17T11:46:48.906Z,2.27
2023-01-17T11:49:26.027Z,2.30
2023-01-17T11:51:56.199Z,2.20
2023-01-17T11:54:39.452Z,2.30
2023-01-17T11:57:17.403Z,2.90
2023-01-17T11:59:45.365Z,2.97
2023-01-17T12:03:02.278Z,2.40
2023-01-17T12:06:03.676Z,2.50
2023-01-17T12:08:51.229Z,2.23
2023-01-17T12:11:30.932Z,2.20
2023-01-17T12:14:22.693Z,2.63
2023-01-17T12:16:58.495Z,3.73
2023-01-17T12:19:34.373Z,2.57
2023-01-17T12:22:23.037Z,2.80
2023-01-17T12:25:07.908Z,2.93
2023-01-17T12:27:49.639Z,2.80
2023-01-17T12:30:19.207Z,2.57
2023-01-17T12:32:53.557Z,2.57
2023-01-17T12:35:26.161Z,2.57
2023-01-17T12:38:05.206Z,2.50
2023-01-17T12:40:38.669Z,2.33
2023-01-17T12:43:36.982Z,2.57
2023-01-17T12:46:28.415Z,2.80
2023-01-17T12:49:03.001Z,2.27
2023-01-17T12:51:43.584Z,2.53
2023-01-17T12:54:21.159Z,2.60
2023-01-17T12:56:54.360Z,3.30
2023-01-17T12:59:37.787Z,3.07
2023-01-17T13:02:19.298Z,2.80
2023-01-17T13:05:03.213Z,3.00
2023-01-17T13:07:47.882Z,2.60
2023-01-17T13:10:33.131Z,2.40
2023-01-17T13:13:24.201Z,2.20
2023-01-17T13:15:54.415Z,9.53
2023-01-17T13:18:26.078Z,2.80
2023-01-17T13:21:11.421Z,2.27
2023-01-17T13:23:59.788Z,2.17
2023-01-17T13:26:51.151Z,2.13
2023-01-17T13:29:52.250Z,2.00
2023-01-17T13:32:28.210Z,1.97
2023-01-17T13:35:03.061Z,1.60
2023-01-17T13:37:37.452Z,1.80
2023-01-17T13:40:29.711Z,1.90
2023-01-17T13:43:13.363Z,1.67
2023-01-17T13:45:40.591Z,1.60
2023-01-17T13:48:14.903Z,1.70
2023-01-17T13:50:41.441Z,1.90
2023-01-17T13:53:37.053Z,1.60
2023-01-17T13:56:18.889Z,1.67
2023-01-17T13:58:47.250Z,1.67
2023-01-17T14:01:14.043Z,1.60
2023-01-17T14:03:46.664Z,1.40
2023-01-17T14:06:44.590Z,1.47
2023-01-17T14:09:19.142Z,1.70
2023-01-17T14:12:06.334Z,2.00
2023-01-17T14:14:42.737Z,1.90
2023-01-17T14:17:28.296Z,1.80
2023-01-17T14:20:18.964Z,1.90
2023-01-17T14:22:56.267Z,2.07
2023-01-17T14:25:37.930Z,2.23
2023-01-17T14:28:20.649Z,2.37
2023-01-17T14:30:54.253Z,2.20
2023-01-17T14:33:28.458Z,2.10
2023-01-17T14:36:00.882Z,2.57
2023-01-17T14:38:31.704Z,2.60
2023-01-17T14:41:23.091Z,2.07
2023-01-17T14:43:51.310Z,2.07
2023-01-17T14:46:25.291Z,2.30
2023-01-17T14:49:00.111Z,2.40
2023-01-17T14:51:28.281Z,2.20
2023-01-17T14:53:59.890Z,2.40
2023-01-17T14:56:28.307Z,2.43
2023-01-17T14:59:22.200Z,2.40
2023-01-17T15:02:06.778Z,2.63
2023-01-17T15:04:39.779Z,2.43
2023-01-17T15:07:07.579Z,2.80
2023-01-17T15:09:37.808Z,2.80
2023-01-17T15:12:08.641Z,2.30
2023-01-17T15:14:40.207Z,2.57
2023-01-17T15:17:25.035Z,2.50
2023-01-17T15:19:56.469Z,3.03
2023-01-17T15:22:25.990Z,3.60
2023-01-17T15:24:53.599Z,3.00
2023-01-17T15:27:20.686Z,2.80
2023-01-17T15:29:48.268Z,2.57
2023-01-17T15:32:24.284Z,2.90
2023-01-17T15:34:52.186Z,2.93
2023-01-17T15:37:29.029Z,3.77
2023-01-17T15:40:16.934Z,3.00
2023-01-17T15:42:46.850Z,3.00
2023-01-17T15:45:19.916Z,2.93
2023-01-17T15:47:46.859Z,3.07
2023-01-17T15:50:30.141Z,3.53
2023-01-17T15:53:05.270Z,3.90
2023-01-17T15:55:38.288Z,4.30
2023-01-17T15:58:22.821Z,4.13
2023-01-17T16:00:49.601Z,3.40
2023-01-17T16:03:30.640Z,3.03
2023-01-17T16:06:00.342Z,3.57
2023-01-17T16:08:28.484Z,3.60
2023-01-17T16:11:01.993Z,13.07
2023-01-17T16:13:48.532Z,6.90
2023-01-17T16:16:21.094Z,7.17
2023-01-17T16:18:48.969Z,4.47
2023-01-17T16:21:45.287Z,3.40
2023-01-17T16:24:11.935Z,5.77
2023-01-17T16:26:38.474Z,4.63
2023-01-17T16:29:05.136Z,4.23
2023-01-17T16:31:32.531Z,5.23
2023-01-17T16:33:59.393Z,5.03
2023-01-17T16:36:25.952Z,4.27
2023-01-17T16:38:53.124Z,4.40
2023-01-17T16:41:20.485Z,5.70
2023-01-17T16:43:57.534Z,4.80
2023-01-17T16:46:25.057Z,5.23
2023-01-17T16:48:51.937Z,4.60
2023-01-17T16:51:19.561Z,5.10
2023-01-17T16:53:46.293Z,9.23
2023-01-17T16:56:16.499Z,7.50
2023-01-17T16:58:43.183Z,7.17
2023-01-17T17:01:11.889Z,5.00
2023-01-17T17:03:38.605Z,5.40
2023-01-17T17:06:05.384Z,5.93
2023-01-17T17:08:34.056Z,5.10
2023-01-17T17:11:09.285Z,4.80
2023-01-17T17:13:36.348Z,4.80
2023-01-17T17:16:10.091Z,5.40
2023-01-17T17:18:36.818Z,4.73
2023-01-17T17:21:03.434Z,4.77
2023-01-17T17:23:30.020Z,4.53
2023-01-17T17:25:57.322Z,4.60
2023-01-17T17:28:24.017Z,5.40
2023-01-17T17:30:50.576Z,5.63
2023-01-17T17:33:17.155Z,4.97
2023-01-17T17:35:43.742Z,4.77
2023-01-17T17:38:10.494Z,5.20
2023-01-17T17:40:37.040Z,4.33
2023-01-17T17:43:03.720Z,5.13
2023-01-17T17:45:30.475Z,5.43
2023-01-17T17:47:57.029Z,6.53
2023-01-17T17:50:23.623Z,7.47
2023-01-17T17:52:50.353Z,6.53
2023-01-17T17:55:18.987Z,9.70
2023-01-17T17:57:45.998Z,6.03
2023-01-17T18:00:13.300Z,8.67
2023-01-17T18:02:39.836Z,8.10
2023-01-17T18:05:06.945Z,7.73
2023-01-17T18:07:34.394Z,5.57
2023-01-17T18:10:00.936Z,4.67
2023-01-17T18:12:27.695Z,5.00
2023-01-17T18:14:54.504Z,4.37
2023-01-17T18:17:21.092Z,4.43
2023-01-17T18:19:47.740Z,5.00
2023-01-17T18:22:14.316Z,4.07
2023-01-17T18:24:41.009Z,4.97
2023-01-17T18:27:10.319Z,4.40
2023-01-17T18:29:37.063Z,4.87
2023-01-17T18:32:03.709Z,4.90
2023-01-17T18:34:30.356Z,6.37
2023-01-17T18:36:57.816Z,5.50
2023-01-17T18:39:26.731Z,5.60
2023-01-17T18:41:54.574Z,5.33
2023-01-17T18:44:22.296Z,4.97
2023-01-17T18:46:50.378Z,4.93
2023-01-17T18:49:19.364Z,5.23
2023-01-17T18:51:51.079Z,5.30
2023-01-17T18:54:21.931Z,5.53
2023-01-17T18:56:48.694Z,5.17
2023-01-17T18:59:18.647Z,5.63
2023-01-17T19:01:46.253Z,5.03
2023-01-17T19:04:14.890Z,5.37
2023-01-17T19:06:43.566Z,4.57
2023-01-17T19:09:12.377Z,4.50
2023-01-17T19:11:39.080Z,4.60
2023-01-17T19:14:06.755Z,4.97
2023-01-17T19:16:39.025Z,5.13
2023-01-17T19:19:08.269Z,5.27
2023-01-17T19:21:35.005Z,4.43
2023-01-17T19:24:02.118Z,5.37
2023-01-17T19:26:30.152Z,4.37
2023-01-17T19:28:58.925Z,4.97
2023-01-17T19:31:28.560Z,5.67
2023-01-17T19:33:57.705Z,5.70
2023-01-17T19:36:27.392Z,6.10
2023-01-17T19:39:03.925Z,6.90
2023-01-17T19:41:32.481Z,6.37
2023-01-17T19:44:07.968Z,7.10
2023-01-17T19:46:35.973Z,7.63
2023-01-17T19:49:03.504Z,7.40
2023-01-17T19:51:30.275Z,7.27
2023-01-17T19:54:00.022Z,10.93
2023-01-17T19:56:27.808Z,14.10
2023-01-17T19:58:54.825Z,20.40
2023-01-17T20:01:28.872Z,12.93
2023-01-17T20:03:58.055Z,10.83
2023-01-17T20:06:28.967Z,8.37
2023-01-17T20:08:56.091Z,7.50
2023-01-17T20:11:24.323Z,7.50
2023-01-17T20:13:56.848Z,6.30
2023-01-17T20:16:25.025Z,6.40
2023-01-17T20:18:51.831Z,6.33
2023-01-17T20:21:23.494Z,6.73
2023-01-17T20:23:51.458Z,6.97
2023-01-17T20:26:21.144Z,6.60
2023-01-17T20:28:50.041Z,6.30
2023-01-17T20:31:19.683Z,6.10
2023-01-17T20:33:47.695Z,5.67
2023-01-17T20:36:15.933Z,5.80
2023-01-17T20:38:46.540Z,6.93
2023-01-17T20:41:24.067Z,6.57
2023-01-17T20:43:55.944Z,6.70
2023-01-17T20:46:25.529Z,9.23
2023-01-17T20:48:55.518Z,32.63
2023-01-17T20:51:27.078Z,13.20
2023-01-17T20:53:57.030Z,9.83
2023-01-17T20:56:24.618Z,16.27
2023-01-17T20:58:52.326Z,9.27
2023-01-17T21:01:19.435Z,7.77
2023-01-17T21:03:51.765Z,7.10
2023-01-17T21:06:20.561Z,7.17
2023-01-17T21:08:48.444Z,7.30
2023-01-17T21:11:18.703Z,6.80
2023-01-17T21:13:45.590Z,6.40
2023-01-17T21:16:14.350Z,5.57
2023-01-17T21:18:41.038Z,5.93
2023-01-17T21:21:11.892Z,5.73
2023-01-17T21:23:40.461Z,6.57
2023-01-17T21:26:10.638Z,6.07
2023-01-17T21:28:39.587Z,4.57
2023-01-17T21:31:27.671Z,4.27
2023-01-17T21:33:59.971Z,4.10
2023-01-17T21:36:34.806Z,3.90
2023-01-17T21:39:04.961Z,3.77
2023-01-17T21:41:42.058Z,3.80
2023-01-17T21:44:14.689Z,3.77
2023-01-17T21:46:41.465Z,3.77
2023-01-17T21:49:12.518Z,3.77
2023-01-17T21:51:52.773Z,9.23
2023-01-17T21:54:20.326Z,11.63
2023-01-17T21:57:05.594Z,9.37
2023-01-17T21:59:32.159Z,8.93
2023-01-17T22:01:58.788Z,9.33
2023-01-17T22:04:25.906Z,8.90
2023-01-17T22:06:52.538Z,20.47
2023-01-17T22:09:19.114Z,11.90
2023-01-17T22:11:45.771Z,5.23
2023-01-17T22:14:12.377Z,4.70
2023-01-17T22:16:38.950Z,4.40
2023-01-17T22:19:05.575Z,5.73
2023-01-17T22:21:32.158Z,7.03
2023-01-17T22:23:59.775Z,4.60
2023-01-17T22:26:31.549Z,3.03
2023-01-17T22:29:02.317Z,3.83
2023-01-17T22:31:29.044Z,3.53
2023-01-17T22:34:02.047Z,4.93
2023-01-17T22:36:29.885Z,4.37
2023-01-17T22:38:56.910Z,4.97
2023-01-17T22:41:31.552Z,4.57
2023-01-17T22:43:59.936Z,4.30
2023-01-17T22:46:31.033Z,4.87
2023-01-17T22:48:58.288Z,4.87
2023-01-17T22:51:26.956Z,5.27
2023-01-17T22:53:56.841Z,5.57
2023-01-17T22:56:26.732Z,5.07
2023-01-17T22:58:53.609Z,5.27
2023-01-17T23:01:23.236Z,5.67
2023-01-17T23:03:57.999Z,6.27
2023-01-17T23:06:31.812Z,5.57
2023-01-17T23:09:01.310Z,5.70
2023-01-17T23:11:52.837Z,5.53
2023-01-17T23:14:19.512Z,5.60
2023-01-17T23:17:16.143Z,6.03
2023-01-17T23:19:54.752Z,4.67
2023-01-17T23:22:27.342Z,5.83
2023-01-17T23:25:08.043Z,5.60
2023-01-17T23:27:56.374Z,5.30
2023-01-17T23:30:35.426Z,5.43
2023-01-17T23:33:07.638Z,5.13
2023-01-17T23:35:41.533Z,5.27
2023-01-17T23:38:33.612Z,3.57
2023-01-17T23:41:24.583Z,3.53
2023-01-17T23:43:56.487Z,3.70
2023-01-17T23:46:24.691Z,3.90
2023-01-17T23:48:51.548Z,3.90
2023-01-17T23:51:18.509Z,3.80
2023-01-17T23:53:45.373Z,3.17
2023-01-17T23:56:19.791Z,3.20
2023-01-17T23:58:46.536Z,2.50
